createdAt,value
2017-09-23T00:00:11.242Z,95.10
2017-09-23T00:02:39.497Z,95.10
2017-09-23T00:05:06.979Z,95.00
2017-09-23T00:07:35.236Z,95.00
2017-09-23T00:10:02.734Z,94.90
2017-09-23T00:12:30.226Z,95.10
2017-09-23T00:14:57.717Z,95.00
2017-09-23T00:17:25.195Z,95.30
2017-09-23T00:19:53.445Z,95.10
2017-09-23T00:22:20.917Z,95.00
2017-09-23T00:24:49.162Z,95.40
2017-09-23T00:27:16.651Z,95.10
2017-09-23T00:29:44.899Z,95.10
2017-09-23T00:32:12.384Z,95.00
2017-09-23T00:34:40.630Z,95.30
2017-09-23T00:37:08.116Z,95.00
2017-09-23T00:39:35.598Z,95.20
2017-09-23T00:42:03.086Z,95.70
2017-09-23T00:44:30.571Z,95.30
2017-09-23T00:46:58.063Z,95.30
2017-09-23T00:49:26.306Z,95.20
2017-09-23T00:51:53.805Z,95.10
2017-09-23T00:54:22.046Z,94.90
2017-09-23T00:56:49.517Z,94.80
2017-09-23T00:59:16.998Z,94.90
2017-09-23T01:01:45.239Z,95.10
2017-09-23T01:04:12.718Z,95.10
2017-09-23T01:06:40.190Z,95.10
2017-09-23T01:09:08.429Z,95.00
2017-09-23T01:11:35.907Z,95.00
2017-09-23T01:14:03.386Z,94.80
2017-09-23T01:16:31.635Z,94.80
2017-09-23T01:18:59.110Z,94.80
2017-09-23T01:21:27.359Z,94.90
2017-09-23T01:23:54.843Z,95.00
2017-09-23T01:26:22.322Z,94.80
2017-09-23T01:28:50.563Z,95.20
2017-09-23T01:31:18.810Z,95.00
2017-09-23T01:33:46.297Z,95.00
2017-09-23T01:36:13.779Z,95.30
2017-09-23T01:38:42.032Z,95.60
2017-09-23T01:41:09.527Z,95.60
2017-09-23T01:43:37.785Z,95.20
2017-09-23T01:46:06.036Z,95.50
2017-09-23T01:48:33.524Z,95.20
2017-09-23T01:51:01.766Z,95.40
2017-09-23T01:53:29.246Z,95.30
2017-09-23T01:55:56.726Z,95.40
2017-09-23T01:58:24.965Z,95.90
2017-09-23T02:00:52.435Z,95.80
2017-09-23T02:03:19.913Z,95.80
2017-09-23T02:05:48.158Z,95.70
2017-09-23T02:08:15.635Z,95.60
2017-09-23T02:10:43.101Z,95.50
2017-09-23T02:13:10.578Z,95.40
2017-09-23T02:15:38.836Z,95.40
2017-09-23T02:18:06.314Z,95.40
2017-09-23T02:20:34.559Z,95.20
2017-09-23T02:23:03.822Z,94.90
2017-09-23T02:25:31.307Z,94.90
2017-09-23T02:27:58.776Z,94.70
2017-09-23T02:30:26.246Z,94.90
2017-09-23T02:32:53.726Z,95.20
2017-09-23T02:35:21.984Z,95.70
2017-09-23T02:37:49.462Z,95.60
2017-09-23T02:40:17.702Z,95.90
2017-09-23T02:42:45.183Z,95.80
2017-09-23T02:45:13.433Z,96.30
2017-09-23T02:47:40.915Z,96.00
2017-09-23T02:50:09.166Z,97.00
2017-09-23T02:52:36.640Z,96.60
2017-09-23T02:55:05.634Z,96.70
2017-09-23T02:57:33.114Z,96.70
2017-09-23T03:00:01.359Z,96.60
2017-09-23T03:02:28.839Z,96.60
2017-09-23T03:04:56.331Z,96.50
2017-09-23T03:07:23.820Z,96.50
2017-09-23T03:09:51.297Z,96.80
2017-09-23T03:12:18.774Z,96.70
2017-09-23T03:14:46.251Z,96.70
2017-09-23T03:17:14.505Z,96.60
2017-09-23T03:19:41.986Z,96.60
2017-09-23T03:22:10.247Z,96.80
2017-09-23T03:24:38.498Z,97.30
2017-09-23T03:27:05.988Z,97.10
2017-09-23T03:29:34.243Z,96.70
2017-09-23T03:32:01.735Z,96.70
2017-09-23T03:34:29.983Z,96.70
2017-09-23T03:36:57.473Z,96.70
2017-09-23T03:39:25.732Z,97.30
2017-09-23T03:41:53.993Z,97.70
2017-09-23T03:44:21.474Z,97.40
2017-09-23T03:46:49.722Z,97.50
2017-09-23T03:49:17.202Z,97.50
2017-09-23T03:51:44.684Z,97.10
2017-09-23T03:54:12.159Z,96.80
2017-09-23T03:56:39.653Z,96.90
2017-09-23T03:59:07.144Z,96.70
2017-09-23T04:01:35.390Z,96.90
2017-09-23T04:04:02.905Z,96.90
2017-09-23T04:06:30.373Z,97.00
2017-09-23T04:08:57.866Z,96.70
2017-09-23T04:11:25.355Z,96.10
2017-09-23T04:13:53.596Z,96.10
2017-09-23T04:16:21.073Z,96.10
2017-09-23T04:18:48.554Z,95.90
2017-09-23T04:21:16.793Z,96.30
2017-09-23T04:23:44.284Z,96.30
2017-09-23T04:26:12.542Z,96.70
2017-09-23T04:28:40.033Z,96.50
2017-09-23T04:31:08.284Z,96.80
2017-09-23T04:33:35.766Z,96.80
2017-09-23T04:36:04.010Z,96.70
2017-09-23T04:38:31.491Z,96.70
2017-09-23T04:40:59.734Z,96.90
2017-09-23T04:43:27.210Z,96.90
2017-09-23T04:45:54.696Z,97.00
2017-09-23T04:48:22.952Z,97.20
2017-09-23T04:50:50.426Z,97.20
2017-09-23T04:53:18.741Z,97.10
2017-09-23T04:55:46.228Z,97.00
2017-09-23T04:58:13.716Z,97.10
2017-09-23T05:00:42.907Z,97.20
2017-09-23T05:03:10.394Z,97.20
2017-09-23T05:05:37.875Z,97.40
2017-09-23T05:08:05.363Z,97.50
2017-09-23T05:10:32.850Z,95.50
2017-09-23T05:13:01.102Z,96.70
2017-09-23T05:15:28.583Z,96.30
2017-09-23T05:17:56.065Z,96.80
2017-09-23T05:20:24.300Z,96.40
2017-09-23T05:22:51.778Z,96.30
2017-09-23T05:25:20.038Z,96.60
2017-09-23T05:27:47.522Z,96.60
2017-09-23T05:30:15.778Z,96.00
2017-09-23T05:32:43.271Z,95.90
2017-09-23T05:35:11.523Z,96.20
2017-09-23T05:37:38.998Z,96.10
2017-09-23T05:40:07.256Z,96.40
2017-09-23T05:42:34.729Z,96.40
2017-09-23T05:45:02.982Z,96.70
2017-09-23T05:47:30.466Z,96.60
2017-09-23T05:49:58.715Z,96.40
2017-09-23T05:52:26.185Z,96.40
2017-09-23T05:54:53.665Z,96.40
2017-09-23T05:57:21.907Z,96.80
2017-09-23T05:59:49.394Z,96.50
2017-09-23T06:02:17.638Z,96.20
2017-09-23T06:04:45.114Z,96.20
2017-09-23T06:07:12.584Z,96.40
2017-09-23T06:09:40.834Z,96.50
2017-09-23T06:12:08.314Z,96.00
2017-09-23T06:14:35.792Z,96.90
2017-09-23T06:17:04.043Z,96.50
2017-09-23T06:19:31.517Z,96.50
2017-09-23T06:21:59.759Z,97.10
2017-09-23T06:24:27.245Z,97.10
2017-09-23T06:26:54.715Z,96.70
2017-09-23T06:29:22.214Z,97.00
2017-09-23T06:31:49.683Z,97.10
2017-09-23T06:34:17.194Z,96.90
2017-09-23T06:36:45.443Z,97.10
2017-09-23T06:39:12.931Z,97.10
2017-09-23T06:41:41.173Z,97.20
2017-09-23T06:44:08.660Z,97.10
2017-09-23T06:46:36.918Z,96.30
2017-09-23T06:49:04.407Z,96.30
2017-09-23T06:51:32.656Z,96.30
2017-09-23T06:54:00.129Z,96.30
2017-09-23T06:56:28.383Z,96.90
2017-09-23T06:58:55.857Z,96.90
2017-09-23T07:01:23.332Z,97.00
2017-09-23T07:03:51.591Z,97.30
2017-09-23T07:06:19.108Z,97.20
2017-09-23T07:08:46.591Z,96.30
2017-09-23T07:11:14.075Z,96.80
2017-09-23T07:13:42.321Z,94.80
2017-09-23T07:16:09.793Z,94.80
2017-09-23T07:18:37.277Z,95.40
2017-09-23T07:21:05.530Z,96.30
2017-09-23T07:23:33.013Z,96.20
2017-09-23T07:26:01.260Z,96.20
2017-09-23T07:28:28.743Z,96.20
2017-09-23T07:30:56.994Z,95.90
2017-09-23T07:33:24.475Z,96.00
2017-09-23T07:35:52.725Z,95.70
2017-09-23T07:38:20.216Z,95.70
2017-09-23T07:40:48.466Z,95.40
2017-09-23T07:43:15.954Z,95.30
2017-09-23T07:45:44.203Z,95.50
2017-09-23T07:48:11.699Z,95.50
2017-09-23T07:50:39.946Z,95.50
2017-09-23T07:53:07.440Z,95.50
2017-09-23T07:55:34.934Z,95.20
2017-09-23T07:58:02.419Z,93.10
2017-09-23T08:00:29.903Z,92.40
2017-09-23T08:02:58.151Z,94.50
2017-09-23T08:05:25.639Z,94.40
2017-09-23T08:07:54.073Z,94.50
2017-09-23T08:10:21.551Z,94.40
2017-09-23T08:12:49.039Z,95.00
2017-09-23T08:15:17.273Z,94.10
2017-09-23T08:17:44.763Z,94.10
2017-09-23T08:20:12.999Z,95.50
2017-09-23T08:22:40.488Z,95.80
2017-09-23T08:25:07.974Z,94.90
2017-09-23T08:27:36.226Z,95.70
2017-09-23T08:30:03.697Z,95.60
2017-09-23T08:32:31.952Z,93.80
2017-09-23T08:34:59.452Z,93.50
2017-09-23T08:37:26.949Z,93.10
2017-09-23T08:39:54.442Z,92.70
2017-09-23T08:42:21.939Z,92.60
2017-09-23T08:44:49.421Z,92.80
2017-09-23T08:47:16.899Z,93.40
2017-09-23T08:49:44.387Z,93.50
2017-09-23T08:52:12.662Z,93.60
2017-09-23T08:54:40.915Z,93.80
2017-09-23T08:57:08.393Z,93.70
2017-09-23T08:59:36.645Z,93.10
2017-09-23T09:02:04.130Z,93.10
2017-09-23T09:04:31.619Z,93.30
2017-09-23T09:06:59.099Z,92.70
2017-09-23T09:09:26.574Z,93.30
2017-09-23T09:11:54.068Z,92.50
2017-09-23T09:14:22.334Z,93.20
2017-09-23T09:16:49.822Z,92.80
2017-09-23T09:19:18.071Z,92.70
2017-09-23T09:21:45.560Z,92.70
2017-09-23T09:24:13.815Z,92.50
2017-09-23T09:26:42.072Z,93.30
2017-09-23T09:29:09.574Z,93.00
2017-09-23T09:31:37.155Z,93.60
2017-09-23T09:34:04.638Z,92.60
2017-09-23T09:36:32.130Z,92.80
2017-09-23T09:39:00.771Z,92.60
2017-09-23T09:41:28.267Z,92.20
2017-09-23T09:43:55.758Z,93.30
2017-09-23T09:46:23.250Z,91.60
2017-09-23T09:48:50.737Z,92.10
2017-09-23T09:51:19.734Z,91.00
2017-09-23T09:53:47.228Z,91.00
2017-09-23T09:56:14.718Z,90.10
2017-09-23T09:58:42.209Z,88.00
2017-09-23T10:01:09.709Z,89.10
2017-09-23T10:03:37.198Z,90.10
2017-09-23T10:06:04.687Z,90.70
2017-09-23T10:08:32.169Z,90.50
2017-09-23T10:11:00.430Z,87.00
2017-09-23T10:13:38.617Z,86.40
2017-09-23T10:16:06.107Z,86.10
2017-09-23T10:18:34.388Z,86.00
2017-09-23T10:21:02.646Z,87.90
2017-09-23T10:23:30.914Z,88.10
2017-09-23T10:25:58.411Z,88.00
2017-09-23T10:28:26.655Z,86.80
2017-09-23T10:30:54.147Z,86.80
2017-09-23T10:33:22.408Z,84.00
2017-09-23T10:35:50.677Z,85.20
2017-09-23T10:38:18.927Z,84.60
2017-09-23T10:40:46.417Z,84.50
2017-09-23T10:43:13.911Z,85.20
2017-09-23T10:45:41.393Z,87.00
2017-09-23T10:48:08.878Z,84.30
2017-09-23T10:50:36.373Z,87.90
2017-09-23T10:53:04.635Z,91.60
2017-09-23T10:55:32.900Z,91.40
2017-09-23T10:58:00.386Z,91.40
2017-09-23T11:00:28.628Z,90.70
2017-09-23T11:02:56.114Z,91.00
2017-09-23T11:05:24.362Z,93.10
2017-09-23T11:07:51.836Z,93.10
2017-09-23T11:10:20.096Z,92.20
2017-09-23T11:12:47.583Z,92.30
2017-09-23T11:15:15.829Z,84.50
2017-09-23T11:17:43.319Z,84.50
2017-09-23T11:20:11.570Z,79.90
2017-09-23T11:22:39.057Z,79.90
2017-09-23T11:25:07.301Z,86.50
2017-09-23T11:27:34.788Z,88.00
2017-09-23T11:30:03.042Z,76.30
2017-09-23T11:32:30.530Z,76.20
2017-09-23T11:34:58.782Z,78.00
2017-09-23T11:37:26.279Z,77.80
2017-09-23T11:39:54.536Z,90.00
2017-09-23T11:42:22.802Z,89.80
2017-09-23T11:44:51.049Z,90.40
2017-09-23T11:47:18.596Z,89.60
2017-09-23T11:49:46.086Z,86.30
2017-09-23T11:52:13.566Z,75.60
2017-09-23T11:54:41.040Z,84.50
2017-09-23T11:57:09.302Z,83.60
2017-09-23T11:59:37.563Z,87.60
2017-09-23T12:02:05.063Z,87.60
2017-09-23T12:04:32.570Z,88.30
2017-09-23T12:07:00.082Z,86.80
2017-09-23T12:09:27.582Z,87.10
2017-09-23T12:11:56.665Z,82.30
2017-09-23T12:14:24.267Z,86.60
2017-09-23T12:16:53.265Z,86.60
2017-09-23T12:19:21.529Z,84.30
2017-09-23T12:21:49.027Z,84.40
2017-09-23T12:24:17.281Z,87.10
2017-09-23T12:26:45.537Z,87.30
2017-09-23T12:29:13.027Z,87.20
2017-09-23T12:31:41.305Z,83.10
2017-09-23T12:34:09.579Z,84.30
2017-09-23T12:36:37.825Z,83.20
2017-09-23T12:39:06.830Z,83.20
2017-09-23T12:41:35.870Z,81.30
2017-09-23T12:44:03.454Z,81.00
2017-09-23T12:46:30.972Z,85.10
2017-09-23T12:48:59.363Z,84.20
2017-09-23T12:51:27.732Z,81.80
2017-09-23T12:53:58.950Z,82.20
2017-09-23T12:56:27.397Z,82.40
2017-09-23T12:58:54.924Z,82.50
2017-09-23T13:01:23.397Z,82.70
2017-09-23T13:03:51.667Z,82.40
2017-09-23T13:06:19.975Z,84.70
2017-09-23T13:08:47.502Z,83.60
2017-09-23T13:11:15.191Z,82.00
2017-09-23T13:13:42.822Z,81.60
2017-09-23T13:16:10.318Z,82.20
2017-09-23T13:18:37.979Z,78.30
2017-09-23T13:21:06.646Z,77.50
2017-09-23T13:23:37.908Z,83.00
2017-09-23T13:26:06.047Z,82.80
2017-09-23T13:28:34.769Z,79.30
2017-09-23T13:31:05.602Z,80.40
2017-09-23T13:33:34.424Z,79.50
2017-09-23T13:36:02.934Z,79.30
2017-09-23T13:38:31.902Z,77.90
2017-09-23T13:41:01.853Z,81.70
2017-09-23T13:43:32.373Z,79.70
2017-09-23T13:46:00.407Z,79.80
2017-09-23T13:48:28.149Z,81.30
2017-09-23T13:50:57.706Z,80.00
2017-09-23T13:53:25.609Z,79.80
2017-09-23T13:55:55.201Z,80.90
2017-09-23T13:58:24.282Z,81.10
2017-09-23T14:00:51.938Z,81.10
2017-09-23T14:03:19.581Z,81.00
2017-09-23T14:05:48.343Z,81.00
2017-09-23T14:08:17.269Z,81.50
2017-09-23T14:10:45.243Z,81.40
2017-09-23T14:13:13.407Z,79.50
2017-09-23T14:15:42.210Z,80.40
2017-09-23T14:18:10.736Z,77.10
2017-09-23T14:20:39.987Z,78.70
2017-09-23T14:23:07.729Z,78.50
2017-09-23T14:25:37.104Z,79.30
2017-09-23T14:28:04.738Z,81.40
2017-09-23T14:30:32.547Z,82.60
2017-09-23T14:33:02.437Z,79.80
2017-09-23T14:35:30.884Z,79.80
2017-09-23T14:37:59.065Z,79.50
2017-09-23T14:40:26.793Z,78.80
2017-09-23T14:42:55.671Z,80.30
2017-09-23T14:45:24.431Z,80.30
2017-09-23T14:47:52.227Z,80.30
2017-09-23T14:50:20.879Z,80.50
2017-09-23T14:52:48.516Z,80.40
2017-09-23T14:55:16.009Z,78.50
2017-09-23T14:57:43.507Z,78.20
2017-09-23T15:00:11.776Z,76.50
2017-09-23T15:02:40.034Z,79.30
2017-09-23T15:05:07.542Z,79.20
2017-09-23T15:07:35.046Z,78.80
2017-09-23T15:10:03.300Z,77.20
2017-09-23T15:12:30.784Z,77.30
2017-09-23T15:14:59.037Z,77.40
2017-09-23T15:17:26.522Z,77.40
2017-09-23T15:19:54.009Z,78.00
2017-09-23T15:22:22.271Z,77.70
2017-09-23T15:24:50.532Z,76.00
2017-09-23T15:27:19.546Z,77.20
2017-09-23T15:29:47.793Z,76.50
2017-09-23T15:32:15.282Z,76.30
2017-09-23T15:34:42.761Z,76.00
2017-09-23T15:37:10.251Z,77.00
2017-09-23T15:39:37.730Z,77.60
2017-09-23T15:42:05.216Z,77.70
2017-09-23T15:44:33.469Z,77.30
2017-09-23T15:47:00.954Z,77.20
2017-09-23T15:49:29.211Z,76.30
2017-09-23T15:51:58.207Z,76.50
2017-09-23T15:54:26.457Z,76.90
2017-09-23T15:56:53.938Z,77.00
2017-09-23T15:59:21.426Z,77.20
2017-09-23T16:01:49.678Z,77.00
2017-09-23T16:04:17.930Z,77.50
2017-09-23T16:06:45.432Z,77.50
2017-09-23T16:09:13.681Z,78.00
2017-09-23T16:11:41.175Z,77.90
2017-09-23T16:14:09.425Z,76.80
2017-09-23T16:16:36.910Z,76.70
2017-09-23T16:19:05.157Z,78.80
2017-09-23T16:21:32.662Z,78.80
2017-09-23T16:24:00.172Z,78.80
2017-09-23T16:26:27.653Z,79.60
2017-09-23T16:28:55.910Z,79.50
2017-09-23T16:31:23.390Z,79.50
2017-09-23T16:33:51.651Z,82.60
2017-09-23T16:36:19.134Z,83.00
2017-09-23T16:38:47.401Z,79.10
2017-09-23T16:41:15.683Z,91.70
2017-09-23T16:43:43.947Z,94.20
2017-09-23T16:46:11.447Z,93.80
2017-09-23T16:48:38.933Z,80.10
2017-09-23T16:51:06.516Z,82.80
2017-09-23T16:53:34.006Z,85.50
2017-09-23T16:56:02.268Z,85.30
2017-09-23T16:58:31.258Z,83.00
2017-09-23T17:00:58.755Z,82.80
2017-09-23T17:03:26.253Z,83.40
2017-09-23T17:05:53.759Z,80.70
2017-09-23T17:08:22.010Z,82.90
2017-09-23T17:10:51.007Z,82.50
2017-09-23T17:13:19.994Z,82.80
2017-09-23T17:15:47.482Z,82.60
2017-09-23T17:18:15.744Z,84.60
2017-09-23T17:20:43.233Z,84.70
2017-09-23T17:23:10.732Z,84.70
2017-09-23T17:25:38.273Z,89.50
2017-09-23T17:28:05.768Z,85.10
2017-09-23T17:30:33.251Z,86.40
2017-09-23T17:33:01.508Z,91.00
2017-09-23T17:35:29.020Z,91.00
2017-09-23T17:37:56.532Z,85.20
2017-09-23T17:40:24.808Z,88.40
2017-09-23T17:42:52.306Z,88.50
2017-09-23T17:45:19.796Z,91.10
2017-09-23T17:47:47.286Z,90.90
2017-09-23T17:50:15.560Z,90.70
2017-09-23T17:52:43.047Z,90.70
2017-09-23T17:55:11.306Z,89.70
2017-09-23T17:57:39.563Z,89.00
2017-09-23T18:00:07.046Z,88.90
2017-09-23T18:02:35.314Z,87.10
2017-09-23T18:05:03.611Z,89.60
2017-09-23T18:07:31.867Z,89.10
2017-09-23T18:10:00.876Z,91.10
2017-09-23T18:12:29.141Z,87.40
2017-09-23T18:14:57.483Z,86.50
2017-09-23T18:17:24.974Z,85.50
2017-09-23T18:19:53.985Z,89.20
2017-09-23T18:22:22.239Z,88.60
2017-09-23T18:24:50.511Z,88.30
2017-09-23T18:27:18.035Z,88.20
2017-09-23T18:29:45.526Z,85.80
2017-09-23T18:32:13.018Z,90.40
2017-09-23T18:34:41.289Z,88.30
2017-09-23T18:37:09.610Z,89.10
2017-09-23T18:39:37.105Z,89.10
2017-09-23T18:42:04.608Z,90.10
2017-09-23T18:44:32.875Z,90.00
2017-09-23T18:47:01.150Z,87.90
2017-09-23T18:49:29.419Z,86.50
2017-09-23T18:51:57.674Z,87.30
2017-09-23T18:54:25.163Z,87.10
2017-09-23T18:56:53.444Z,87.90
2017-09-23T18:59:21.698Z,87.30
2017-09-23T19:01:49.962Z,86.90
2017-09-23T19:04:17.453Z,86.40
2017-09-23T19:06:45.722Z,86.90
2017-09-23T19:09:13.986Z,88.10
2017-09-23T19:11:41.483Z,88.10
2017-09-23T19:14:08.978Z,87.50
2017-09-23T19:16:36.468Z,89.00
2017-09-23T19:19:04.727Z,89.60
2017-09-23T19:21:32.235Z,89.70
2017-09-23T19:23:59.737Z,90.10
2017-09-23T19:26:27.229Z,90.10
2017-09-23T19:28:54.719Z,90.60
2017-09-23T19:31:22.200Z,91.40
2017-09-23T19:33:49.687Z,92.10
2017-09-23T19:36:17.178Z,92.30
2017-09-23T19:38:45.601Z,92.30
2017-09-23T19:41:13.114Z,92.30
2017-09-23T19:43:41.368Z,92.50
2017-09-23T19:46:09.634Z,92.40
2017-09-23T19:48:37.113Z,92.40
2017-09-23T19:51:05.378Z,92.40
2017-09-23T19:53:32.862Z,92.60
2017-09-23T19:56:01.146Z,92.50
2017-09-23T19:58:29.443Z,92.80
2017-09-23T20:00:56.928Z,92.80
2017-09-23T20:03:24.434Z,93.20
2017-09-23T20:05:52.711Z,93.30
2017-09-23T20:08:20.968Z,93.50
2017-09-23T20:10:48.451Z,93.40
2017-09-23T20:13:16.716Z,93.90
2017-09-23T20:15:44.979Z,94.40
2017-09-23T20:18:12.462Z,94.00
2017-09-23T20:20:40.726Z,94.40
2017-09-23T20:23:08.991Z,94.80
2017-09-23T20:25:36.485Z,94.40
2017-09-23T20:28:04.742Z,94.10
2017-09-23T20:30:33.003Z,94.00
2017-09-23T20:33:00.539Z,94.20
2017-09-23T20:35:28.590Z,94.50
2017-09-23T20:37:56.401Z,94.30
2017-09-23T20:40:24.104Z,94.50
2017-09-23T20:42:53.927Z,94.50
2017-09-23T20:45:22.809Z,94.50
2017-09-23T20:47:51.778Z,94.30
2017-09-23T20:50:20.399Z,94.20
2017-09-23T20:52:49.344Z,93.80
2017-09-23T20:55:16.996Z,93.80
2017-09-23T20:57:46.298Z,93.80
2017-09-23T21:00:13.788Z,94.60
2017-09-23T21:02:42.054Z,93.40
2017-09-23T21:05:09.568Z,93.40
2017-09-23T21:07:38.705Z,93.70
2017-09-23T21:10:06.200Z,93.60
2017-09-23T21:12:34.053Z,93.90
2017-09-23T21:15:03.057Z,94.40
2017-09-23T21:17:30.703Z,94.70
2017-09-23T21:19:59.073Z,94.20
2017-09-23T21:22:26.566Z,94.10
2017-09-23T21:24:54.985Z,94.20
2017-09-23T21:27:22.491Z,94.20
2017-09-23T21:29:50.738Z,93.90
2017-09-23T21:32:18.350Z,93.90
2017-09-23T21:34:45.961Z,94.30
2017-09-23T21:37:13.480Z,94.70
2017-09-23T21:39:41.106Z,95.10
2017-09-23T21:42:09.486Z,95.20
2017-09-23T21:44:37.903Z,95.50
2017-09-23T21:47:05.487Z,95.50
2017-09-23T21:49:32.974Z,95.20
2017-09-23T21:52:00.471Z,95.50
2017-09-23T21:54:27.956Z,95.60
2017-09-23T21:56:55.434Z,96.10
2017-09-23T21:59:22.918Z,95.90
2017-09-23T22:01:51.179Z,96.50
2017-09-23T22:04:18.672Z,96.40
2017-09-23T22:06:46.937Z,96.90
2017-09-23T22:09:14.462Z,96.80
2017-09-23T22:11:41.951Z,96.90
2017-09-23T22:14:10.202Z,97.40
2017-09-23T22:16:37.685Z,97.40
2017-09-23T22:19:05.940Z,97.70
2017-09-23T22:21:33.429Z,97.40
2017-09-23T22:24:01.670Z,97.40
2017-09-23T22:26:29.149Z,97.40
2017-09-23T22:28:56.635Z,97.10
2017-09-23T22:31:24.888Z,97.20
2017-09-23T22:33:52.362Z,97.10
2017-09-23T22:36:20.596Z,97.40
2017-09-23T22:38:48.085Z,97.50
2017-09-23T22:41:17.079Z,97.60
2017-09-23T22:43:44.568Z,97.60
2017-09-23T22:46:12.055Z,97.60
2017-09-23T22:48:39.535Z,97.50
2017-09-23T22:51:07.027Z,97.80
2017-09-23T22:53:35.279Z,98.10
2017-09-23T22:56:02.765Z,98.10
2017-09-23T22:58:31.005Z,97.90
2017-09-23T23:00:58.507Z,97.90
2017-09-23T23:03:26.759Z,98.10
2017-09-23T23:05:55.808Z,98.10
2017-09-23T23:08:23.295Z,98.20
2017-09-23T23:10:52.055Z,98.10
2017-09-23T23:13:20.273Z,97.90
2017-09-23T23:15:48.851Z,96.90
2017-09-23T23:18:16.891Z,96.20
2017-09-23T23:20:44.509Z,96.40
2017-09-23T23:23:13.396Z,97.30
2017-09-23T23:25:42.655Z,97.10
2017-09-23T23:28:11.208Z,97.00
2017-09-23T23:30:40.245Z,97.40
2017-09-23T23:33:08.700Z,97.60
2017-09-23T23:35:37.397Z,97.30
2017-09-23T23:38:05.738Z,97.50
2017-09-23T23:40:35.032Z,97.10
2017-09-23T23:43:05.403Z,97.10
2017-09-23T23:45:35.143Z,97.10
2017-09-23T23:48:04.597Z,97.10
2017-09-23T23:50:33.388Z,96.70
2017-09-23T23:53:01.680Z,96.90
2017-09-23T23:55:30.534Z,96.30
2017-09-23T23:58:00.129Z,96.50
